Time;durP1;ratioP1;P1;durP2;ratioP2;P2;SDS_P1;SDS_P2;PMS_P1;PMS_P2;Temp;Humidity;BMP_temperature;BMP_pressure;BME280_temperature;BME280_humidity;BME280_pressure;Samples;Min_cycle;Max_cycle;Signal;HPM_P1;HPM_P2
2024/02/05 00:00:49;;;;;;;0.30;0.10;;;10.70;99.90;;;;;;6195021;23;20036;-84
2024/02/05 00:03:18;;;;;;;0.50;0.10;;;10.70;99.90;;;;;;6194039;23;20021;-82
2024/02/05 00:05:48;;;;;;;0.30;0.10;;;10.60;99.90;;;;;;6196465;23;20066;-81
2024/02/05 00:08:18;;;;;;;0.32;0.10;;;10.80;99.90;;;;;;6197853;23;20343;-84
2024/02/05 00:10:49;;;;;;;0.43;0.10;;;10.70;99.90;;;;;;6195665;23;20025;-84
2024/02/05 00:13:19;;;;;;;0.52;0.10;;;10.70;99.90;;;;;;6226060;23;20016;-82
2024/02/05 00:16:04;;;;;;;1.38;0.10;;;10.90;99.90;;;;;;6195706;23;20044;-85
2024/02/05 00:18:32;;;;;;;0.82;0.13;;;10.80;99.90;;;;;;6196297;23;20021;-80
2024/02/05 00:21:12;;;;;;;2.38;0.10;;;11.00;99.90;;;;;;6196989;23;20446;-82
2024/02/05 00:23:41;;;;;;;0.35;0.10;;;10.90;99.90;;;;;;6148984;23;20072;-80
2024/02/05 00:26:11;;;;;;;0.28;0.10;;;11.00;99.90;;;;;;6135279;23;20018;-82
2024/02/05 00:28:40;;;;;;;1.35;0.10;;;11.10;99.90;;;;;;6159509;23;20017;-82
2024/02/05 00:31:13;;;;;;;0.70;0.10;;;11.00;99.90;;;;;;6160635;23;20050;-81
2024/02/05 00:33:41;;;;;;;;;;;11.00;99.90;;;;;;6137391;23;20088;-82
2024/02/05 00:36:11;;;;;;;0.32;0.10;;;11.10;99.90;;;;;;6160686;23;19924;-83
2024/02/05 00:38:39;;;;;;;1.40;0.10;;;11.10;99.90;;;;;;6134811;23;20025;-80
2024/02/05 00:41:11;;;;;;;0.25;0.00;;;10.90;99.90;;;;;;6131110;23;20030;-80
2024/02/05 00:43:40;;;;;;;0.50;0.10;;;11.20;99.90;;;;;;6156912;23;20486;-81
2024/02/05 00:46:22;;;;;;;0.70;0.10;;;10.80;99.90;;;;;;6159416;23;20021;-78
2024/02/05 00:48:55;;;;;;;0.57;0.10;;;10.70;99.90;;;;;;6136239;23;20104;-81
2024/02/05 00:51:27;;;;;;;0.25;0.10;;;10.70;99.90;;;;;;6136326;23;20025;-80
2024/02/05 00:53:58;;;;;;;0.40;0.25;;;10.80;99.90;;;;;;6168597;23;20026;-84
2024/02/05 00:56:30;;;;;;;0.57;0.10;;;10.80;99.90;;;;;;6222295;23;20024;-83
2024/02/05 00:58:58;;;;;;;1.20;0.10;;;10.80;99.90;;;;;;6194750;23;20083;-79
2024/02/05 01:01:33;;;;;;;1.45;0.10;;;10.60;99.90;;;;;;6195678;23;20030;-83
2024/02/05 01:04:05;;;;;;;0.30;0.05;;;10.60;99.90;;;;;;6195945;23;20036;-85
2024/02/05 01:06:34;;;;;;;0.30;0.10;;;10.60;99.90;;;;;;6197444;23;20020;-85
2024/02/05 01:09:08;;;;;;;0.90;0.10;;;10.50;99.90;;;;;;6195859;23;20506;-83
2024/02/05 01:11:38;;;;;;;0.28;0.10;;;10.60;99.90;;;;;;6196613;23;20029;-81
2024/02/05 01:14:10;;;;;;;0.98;0.10;;;10.60;99.90;;;;;;6194856;23;20035;-80
2024/02/05 01:16:42;;;;;;;1.38;0.10;;;10.50;99.90;;;;;;6195335;23;20021;-81
2024/02/05 01:19:11;;;;;;;0.50;0.10;;;10.50;99.90;;;;;;6195459;23;20358;-79
2024/02/05 01:21:45;;;;;;;0.38;0.10;;;11.10;99.90;;;;;;6221640;23;20030;-83
2024/02/05 01:24:16;;;;;;;0.35;0.10;;;11.10;99.90;;;;;;6195322;23;20028;-78
2024/02/05 01:26:45;;;;;;;1.35;0.00;;;10.40;99.90;;;;;;6194762;23;20031;-83
2024/02/05 01:29:14;;;;;;;0.65;0.00;;;9.20;99.90;;;;;;6196776;23;20020;-82
2024/02/05 01:31:45;;;;;;;1.02;0.10;;;10.40;99.90;;;;;;6193544;23;20509;-81
2024/02/05 01:34:14;;;;;;;0.63;0.10;;;10.40;99.90;;;;;;6223277;23;20016;-83
2024/02/05 01:36:43;;;;;;;0.93;0.10;;;10.40;99.90;;;;;;6194831;23;20021;-83
2024/02/05 01:39:12;;;;;;;0.38;0.10;;;10.30;99.90;;;;;;6194425;23;20021;-82
2024/02/05 01:41:44;;;;;;;1.90;0.32;;;10.80;99.90;;;;;;6194895;23;20050;-80
2024/02/05 01:44:13;;;;;;;0.50;0.10;;;9.50;99.90;;;;;;6195758;23;20021;-82
2024/02/05 01:46:42;;;;;;;0.63;0.10;;;11.60;99.90;;;;;;6194205;23;20020;-82
2024/02/05 01:49:14;;;;;;;0.40;0.05;;;10.20;99.90;;;;;;6195736;23;20079;-80
2024/02/05 01:51:48;;;;;;;1.45;0.10;;;10.20;99.90;;;;;;6195270;23;20417;-82
2024/02/05 01:54:18;;;;;;;0.95;0.10;;;10.10;99.90;;;;;;6195907;23;20048;-82
2024/02/05 01:56:52;;;;;;;0.20;0.10;;;10.20;99.90;;;;;;6191040;23;20648;-75
2024/02/05 01:59:21;;;;;;;0.47;0.03;;;10.10;99.90;;;;;;6188852;23;20075;-77
2024/02/05 02:01:51;;;;;;;0.68;0.10;;;10.10;99.90;;;;;;6187975;23;20025;-77
2024/02/05 02:04:21;;;;;;;2.08;0.10;;;10.00;99.90;;;;;;6187170;23;20085;-77
2024/02/05 02:06:53;;;;;;;0.32;0.03;;;9.90;99.90;;;;;;6188122;23;20091;-76
2024/02/05 02:09:24;;;;;;;1.30;0.17;;;10.10;99.90;;;;;;6163857;23;20028;-76
2024/02/05 02:11:53;;;;;;;0.63;0.10;;;10.00;99.90;;;;;;6187916;23;20024;-75
2024/02/05 02:14:30;;;;;;;0.20;0.08;;;10.10;99.90;;;;;;6188858;23;20017;-76
2024/02/05 02:17:04;;;;;;;0.40;0.10;;;10.10;99.90;;;;;;6188963;23;20021;-75
2024/02/05 02:19:48;;;;;;;0.35;0.10;;;10.10;99.90;;;;;;6187892;23;20028;-76
2024/02/05 02:22:30;;;;;;;0.77;0.10;;;10.10;99.90;;;;;;6186965;23;20025;-76
2024/02/05 02:25:01;;;;;;;0.68;0.10;;;10.00;99.90;;;;;;6189009;23;20504;-75
2024/02/05 02:27:32;;;;;;;0.63;0.10;;;10.10;99.90;;;;;;6188198;23;20344;-75
2024/02/05 02:30:02;;;;;;;1.00;0.40;;;10.00;99.90;;;;;;6188835;23;20103;-77
2024/02/05 02:32:38;;;;;;;0.20;0.08;;;10.00;99.90;;;;;;6188366;23;20044;-75
2024/02/05 02:35:17;;;;;;;1.42;0.30;;;10.00;99.90;;;;;;6188515;23;20074;-75
2024/02/05 02:37:56;;;;;;;0.40;0.00;;;10.00;99.90;;;;;;6190012;23;20103;-77
2024/02/05 02:40:29;;;;;;;1.42;0.10;;;10.00;99.90;;;;;;6189856;23;20031;-77
2024/02/05 02:43:03;;;;;;;0.30;0.10;;;10.10;99.90;;;;;;6188899;23;20020;-77
2024/02/05 02:45:36;;;;;;;0.90;0.47;;;10.10;99.90;;;;;;6188179;23;20422;-76
2024/02/05 02:48:06;;;;;;;0.17;0.00;;;10.10;99.90;;;;;;6125163;23;20034;-76
2024/02/05 02:50:36;;;;;;;0.73;0.00;;;10.10;99.90;;;;;;6122537;23;20182;-76
2024/02/05 02:53:07;;;;;;;0.68;0.03;;;10.10;99.90;;;;;;6099799;23;20033;-76
2024/02/05 02:55:37;;;;;;;1.50;0.30;;;10.00;99.90;;;;;;6099148;23;20400;-77
2024/02/05 02:58:06;;;;;;;0.98;0.30;;;10.00;99.90;;;;;;6100182;23;20033;-76
2024/02/05 03:00:35;;;;;;;1.60;0.30;;;9.90;99.90;;;;;;6099844;23;20498;-76
2024/02/05 03:03:06;;;;;;;0.90;0.32;;;9.90;99.90;;;;;;6099484;23;20041;-76
2024/02/05 03:05:35;;;;;;;1.88;0.38;;;9.70;99.90;;;;;;6100270;23;20021;-78
2024/02/05 03:08:03;;;;;;;0.85;0.63;;;9.70;99.90;;;;;;6107291;23;20325;-83
2024/02/05 03:10:32;;;;;;;2.22;0.20;;;9.60;99.90;;;;;;6106433;23;20372;-81
2024/02/05 03:13:02;;;;;;;1.02;0.40;;;9.60;99.90;;;;;;6106182;23;20101;-83
2024/02/05 03:15:30;;;;;;;1.20;0.40;;;9.50;99.90;;;;;;6130188;23;20161;-82
2024/02/05 03:18:00;;;;;;;1.00;0.32;;;9.30;99.90;;;;;;6130772;23;20017;-83
2024/02/05 03:20:36;;;;;;;1.50;0.50;;;9.50;99.90;;;;;;6222396;23;20040;-80
2024/02/05 03:23:06;;;;;;;1.10;0.40;;;9.50;99.90;;;;;;6221770;23;20017;-81
2024/02/05 03:25:39;;;;;;;2.80;0.47;;;9.50;99.90;;;;;;6196237;23;20083;-83
2024/02/05 03:28:10;;;;;;;0.93;0.45;;;9.50;99.90;;;;;;6198092;23;20017;-83
2024/02/05 03:30:40;;;;;;;4.22;0.40;;;8.90;99.90;;;;;;6196211;23;20325;-83
2024/02/05 03:33:09;;;;;;;3.33;0.47;;;9.90;99.90;;;;;;6197113;23;20044;-82
2024/02/05 03:35:39;;;;;;;138.35;75.82;;;9.50;99.90;;;;;;6195956;23;20043;-83
2024/02/05 03:38:08;;;;;;;87.63;42.50;;;9.70;99.90;;;;;;6224233;23;20510;-84
2024/02/05 03:40:37;;;;;;;105.50;64.53;;;8.70;99.90;;;;;;6197340;23;20017;-81
2024/02/05 03:43:06;;;;;;;262.02;106.38;;;9.50;99.90;;;;;;6193450;23;20107;-82
2024/02/05 03:45:36;;;;;;;752.05;317.55;;;9.60;99.90;;;;;;6194170;23;20021;-82
2024/02/05 03:48:07;;;;;;;206.25;76.70;;;9.50;99.90;;;;;;6220461;23;20045;-84
2024/02/05 03:50:36;;;;;;;40.13;17.80;;;9.50;99.90;;;;;;6194714;23;20357;-83
2024/02/05 03:53:05;;;;;;;55.88;25.77;;;9.00;99.90;;;;;;6195446;23;20027;-84
2024/02/05 03:55:34;;;;;;;112.15;50.72;;;9.50;99.90;;;;;;6194535;23;20021;-83
2024/02/05 03:58:05;;;;;;;63.67;29.20;;;9.50;99.90;;;;;;6220072;23;20013;-80
2024/02/05 04:00:34;;;;;;;10.85;4.45;;;9.50;99.90;;;;;;6194968;23;20024;-82
2024/02/05 04:03:06;;;;;;;48.47;22.85;;;9.50;99.90;;;;;;6194180;23;20067;-84
2024/02/05 04:05:35;;;;;;;98.28;50.35;;;9.50;99.90;;;;;;6195858;23;20024;-83
2024/02/05 04:08:06;;;;;;;114.05;58.50;;;9.50;99.90;;;;;;6194799;23;20361;-83
2024/02/05 04:10:36;;;;;;;35.70;20.63;;;9.30;99.90;;;;;;6194356;23;20016;-82
2024/02/05 04:13:05;;;;;;;46.58;29.90;;;9.40;99.90;;;;;;6195879;23;20021;-82
2024/02/05 04:15:34;;;;;;;12.98;7.50;;;9.40;99.90;;;;;;6195288;23;20048;-80
2024/02/05 04:18:05;;;;;;;18.42;10.75;;;8.80;99.90;;;;;;6213317;23;20012;-76
2024/02/05 04:20:33;;;;;;;4.13;2.40;;;9.30;99.90;;;;;;6213092;23;20021;-76
2024/02/05 04:23:02;;;;;;;2.78;1.45;;;9.30;99.90;;;;;;6185631;23;20024;-78
2024/02/05 04:25:34;;;;;;;4.50;1.33;;;9.20;99.90;;;;;;6185093;23;20362;-77
2024/02/05 04:28:02;;;;;;;2.95;1.67;;;9.20;99.90;;;;;;6186317;23;20446;-77
2024/02/05 04:30:36;;;;;;;4.18;2.45;;;9.20;99.90;;;;;;6187079;23;20070;-76
2024/02/05 04:33:07;;;;;;;3.50;1.75;;;9.10;99.90;;;;;;6186624;23;20048;-76
2024/02/05 04:35:36;;;;;;;5.85;2.60;;;9.10;99.90;;;;;;6185676;23;20445;-77
2024/02/05 04:38:05;;;;;;;5.90;2.42;;;9.00;99.90;;;;;;6184362;23;20104;-76
2024/02/05 04:40:33;;;;;;;5.63;2.90;;;9.00;99.90;;;;;;6186462;23;20075;-76
2024/02/05 04:43:02;;;;;;;7.60;3.83;;;9.00;99.90;;;;;;6185468;23;20032;-76
2024/02/05 04:45:30;;;;;;;8.82;4.55;;;9.00;99.90;;;;;;6185960;23;20064;-76
2024/02/05 04:47:58;;;;;;;8.75;5.03;;;9.00;99.90;;;;;;6186251;23;20125;-76
2024/02/05 04:50:28;;;;;;;10.95;6.22;;;9.00;99.90;;;;;;6186216;23;20023;-76
2024/02/05 04:52:56;;;;;;;10.98;6.20;;;8.90;99.90;;;;;;6185499;23;20024;-77
2024/02/05 04:55:25;;;;;;;10.00;5.45;;;8.90;99.90;;;;;;6185741;23;20028;-77
2024/02/05 04:57:53;;;;;;;10.20;5.53;;;8.90;99.90;;;;;;6186398;23;20060;-77
2024/02/05 05:00:22;;;;;;;10.93;5.10;;;8.90;99.90;;;;;;6185258;23;20413;-76
2024/02/05 05:02:51;;;;;;;9.65;5.00;;;8.90;99.90;;;;;;6213476;23;20079;-77
2024/02/05 05:05:19;;;;;;;7.70;4.57;;;8.90;99.90;;;;;;6187001;23;20509;-77
2024/02/05 05:07:50;;;;;;;7.43;5.10;;;8.90;99.90;;;;;;6187023;23;20021;-76
2024/02/05 05:10:20;;;;;;;7.70;4.45;;;8.80;99.90;;;;;;6187296;23;20033;-76
2024/02/05 05:12:49;;;;;;;5.38;3.17;;;8.80;99.90;;;;;;6185936;23;20021;-76
2024/02/05 05:15:18;;;;;;;7.13;3.53;;;8.80;99.90;;;;;;6187075;23;20020;-76
2024/02/05 05:17:46;;;;;;;5.45;3.05;;;8.80;99.90;;;;;;6187493;23;20021;-76
2024/02/05 05:20:15;;;;;;;7.13;3.38;;;8.80;99.90;;;;;;6213208;23;20391;-76
2024/02/05 05:22:45;;;;;;;12.50;7.18;;;8.80;99.90;;;;;;6215545;23;20048;-76
2024/02/05 05:25:15;;;;;;;7.15;4.28;;;8.80;99.90;;;;;;6187281;23;20063;-76
2024/02/05 05:27:43;;;;;;;6.47;3.30;;;8.90;99.90;;;;;;6192918;23;20031;-83
2024/02/05 05:30:12;;;;;;;4.80;2.40;;;8.90;99.90;;;;;;6195966;23;20241;-83
2024/02/05 05:32:41;;;;;;;5.57;3.58;;;8.90;99.90;;;;;;6196746;23;20021;-83
2024/02/05 05:35:09;;;;;;;3.65;2.33;;;8.90;99.90;;;;;;6197264;23;20021;-82
2024/02/05 05:37:41;;;;;;;3.70;1.60;;;9.00;99.90;;;;;;6193875;23;20020;-83
2024/02/05 05:40:10;;;;;;;2.20;1.30;;;9.10;99.90;;;;;;6221811;23;20016;-79
2024/02/05 05:42:40;;;;;;;2.83;1.33;;;9.10;99.90;;;;;;6195901;23;20391;-83
2024/02/05 05:45:09;;;;;;;3.83;2.08;;;9.30;99.90;;;;;;6223065;23;20020;-80
2024/02/05 05:47:39;;;;;;;6.50;4.15;;;9.30;99.90;;;;;;6222886;23;20031;-82
2024/02/05 05:50:10;;;;;;;7.10;4.03;;;9.00;99.90;;;;;;6196357;23;20048;-82
2024/02/05 05:52:39;;;;;;;102.88;40.22;;;9.30;99.90;;;;;;6195351;23;20089;-81
2024/02/05 05:55:09;;;;;;;65.05;27.60;;;9.30;99.90;;;;;;6195357;23;20498;-84
2024/02/05 05:57:39;;;;;;;31.15;15.80;;;9.40;99.90;;;;;;6197749;23;20087;-83
2024/02/05 06:00:09;;;;;;;5.40;3.30;;;9.50;99.90;;;;;;6196510;23;20354;-83
2024/02/05 06:02:38;;;;;;;4.47;2.25;;;9.60;99.90;;;;;;6224684;23;20020;-83
2024/02/05 06:05:08;;;;;;;8.65;7.75;;;9.70;99.90;;;;;;6194509;23;20020;-80
2024/02/05 06:07:39;;;;;;;16.25;7.85;;;9.90;99.90;;;;;;6196375;23;20048;-81
2024/02/05 06:10:09;;;;;;;26.63;12.57;;;10.10;99.90;;;;;;6174561;23;20024;-81
2024/02/05 06:15:38;;;;;;;2.00;0.40;;;10.20;99.90;;;;;;6201291;23;20052;-82
2024/02/05 06:18:41;;;;;;;2.05;1.40;;;10.40;99.90;;;;;;6168570;23;20081;-81
2024/02/05 06:21:13;;;;;;;1.90;1.63;;;10.40;99.90;;;;;;6141898;23;20049;-84
2024/02/05 06:23:47;;;;;;;6.82;3.40;;;10.40;99.90;;;;;;6141835;23;20025;-84
2024/02/05 06:26:19;;;;;;;2.60;1.63;;;10.50;99.90;;;;;;6143152;23;20033;-86
2024/02/05 06:28:49;;;;;;;1.10;0.52;;;10.50;99.90;;;;;;6140089;23;20538;-84
2024/02/05 06:31:21;;;;;;;4.50;2.83;;;10.70;99.90;;;;;;6092715;23;20025;-80
2024/02/05 06:33:55;;;;;;;4.45;2.15;;;10.60;99.90;;;;;;6141941;23;20060;-80
2024/02/05 06:36:26;;;;;;;10.25;6.68;;;10.70;99.90;;;;;;6165161;23;20053;-81
2024/02/05 06:39:02;;;;;;;1.73;0.80;;;10.80;99.90;;;;;;6142569;23;20018;-86
2024/02/05 06:41:34;;;;;;;10.15;5.60;;;10.80;99.90;;;;;;6139104;23;20018;-82
2024/02/05 06:44:06;;;;;;;25.37;12.40;;;10.70;99.90;;;;;;6139645;23;20025;-84
2024/02/05 06:46:37;;;;;;;84.33;34.47;;;10.20;99.90;;;;;;6164444;23;20064;-83
2024/02/05 06:49:09;;;;;;;37.85;20.75;;;10.50;99.90;;;;;;6152862;23;20043;-82
2024/02/05 06:51:40;;;;;;;35.88;22.42;;;11.10;99.90;;;;;;6201616;23;20020;-85
2024/02/05 06:54:09;;;;;;;8.40;6.22;;;11.00;99.90;;;;;;6202236;23;20022;-84
2024/02/05 06:56:40;;;;;;;3.50;1.67;;;11.10;99.90;;;;;;6200975;23;20020;-86
2024/02/05 06:59:13;;;;;;;2.60;1.25;;;11.10;99.90;;;;;;6200655;23;20076;-82
2024/02/05 07:01:48;;;;;;;2.80;1.70;;;11.20;99.90;;;;;;6200193;23;20116;-81
2024/02/05 07:04:21;;;;;;;2.85;1.65;;;11.10;99.90;;;;;;6201344;23;20032;-85
2024/02/05 07:06:52;;;;;;;1.70;0.45;;;11.20;99.90;;;;;;6228981;23;20019;-85
2024/02/05 07:09:29;;;;;;;1.40;0.40;;;11.30;99.90;;;;;;6200767;23;20446;-86
2024/02/05 07:12:01;;;;;;;1.70;0.60;;;11.40;99.90;;;;;;6228538;23;20013;-84
2024/02/05 07:14:31;;;;;;;2.03;0.25;;;11.30;99.90;;;;;;6228836;23;20021;-83
2024/02/05 07:17:05;;;;;;;3.10;1.00;;;11.40;99.90;;;;;;6201627;23;20028;-83
2024/02/05 07:19:36;;;;;;;5.07;1.20;;;11.40;99.90;;;;;;6199837;23;20043;-83
2024/02/05 07:22:24;;;;;;;3.80;1.17;;;11.50;99.90;;;;;;6201346;23;20043;-81
2024/02/05 07:25:01;;;;;;;2.30;0.32;;;11.50;99.90;;;;;;6200769;23;20453;-84
2024/02/05 07:27:35;;;;;;;2.30;0.30;;;11.60;99.90;;;;;;6201895;23;20028;-82
2024/02/05 07:30:08;;;;;;;4.80;0.90;;;12.30;99.90;;;;;;6200193;23;20040;-84
2024/02/05 07:32:42;;;;;;;1.30;0.45;;;12.20;99.90;;;;;;6127497;23;20024;-78
2024/02/05 07:35:13;;;;;;;0.90;0.20;;;11.70;99.90;;;;;;6227178;23;20017;-81
2024/02/05 07:37:44;;;;;;;3.03;0.20;;;11.80;99.90;;;;;;6142406;23;20525;-82
2024/02/05 07:40:17;;;;;;;2.10;0.68;;;12.00;99.90;;;;;;6140223;23;20026;-86
2024/02/05 07:43:24;;;;;;;3.42;0.60;;;11.90;99.90;;;;;;6082053;23;20026;-85
2024/02/05 07:45:57;;;;;;;3.85;0.90;;;10.70;99.90;;;;;;6104118;23;20026;-85
2024/02/05 07:48:37;;;;;;;1.70;0.75;;;11.90;99.90;;;;;;6078888;23;20033;-83
2024/02/05 07:51:20;;;;;;;1.85;0.22;;;11.80;99.90;;;;;;6080059;23;20026;-78
2024/02/05 07:54:15;;;;;;;0.45;0.13;;;11.80;99.90;;;;;;6080171;23;20026;-78
2024/02/05 07:56:47;;;;;;;2.97;1.30;;;11.80;99.90;;;;;;6103824;23;20060;-81
2024/02/05 07:59:21;;;;;;;2.38;0.70;;;11.80;99.90;;;;;;6080326;23;20048;-78
2024/02/05 08:01:54;;;;;;;4.38;0.90;;;11.70;99.90;;;;;;6079772;23;20142;-78
2024/02/05 08:04:26;;;;;;;;;;;11.80;99.90;;;;;;6077333;23;20044;-78
2024/02/05 08:07:09;;;;;;;1.00;0.25;;;11.80;99.90;;;;;;6079850;23;19921;-81
2024/02/05 08:09:41;;;;;;;0.70;0.20;;;12.00;99.90;;;;;;6126316;23;20021;-78
2024/02/05 08:12:16;;;;;;;10.63;4.50;;;12.20;99.90;;;;;;6102521;23;20027;-80
2024/02/05 08:14:55;;;;;;;0.50;0.20;;;12.20;99.90;;;;;;6079132;23;20042;-79
2024/02/05 08:17:40;;;;;;;1.50;0.10;;;12.20;99.90;;;;;;6103131;23;20034;-82
2024/02/05 08:20:11;;;;;;;4.18;0.57;;;12.20;99.90;;;;;;6078220;23;20106;-79
2024/02/05 08:22:45;;;;;;;1.23;0.20;;;12.30;99.90;;;;;;6104818;23;20022;-80
2024/02/05 08:25:29;;;;;;;1.23;0.20;;;12.30;99.90;;;;;;6079288;23;20018;-79
2024/02/05 08:28:09;;;;;;;2.33;0.15;;;12.40;99.90;;;;;;6129171;23;20089;-80
2024/02/05 08:30:45;;;;;;;4.82;0.77;;;12.50;99.90;;;;;;6164395;23;20018;-78
2024/02/05 08:33:19;;;;;;;4.32;1.70;;;12.60;99.90;;;;;;6118997;23;20029;-80
2024/02/05 08:36:22;;;;;;;1.42;0.30;;;12.60;99.90;;;;;;6165041;23;20017;-80
2024/02/05 08:38:51;;;;;;;1.67;0.40;;;12.60;99.90;;;;;;6163344;23;20396;-78
2024/02/05 08:41:21;;;;;;;1.58;0.28;;;12.50;99.90;;;;;;6162664;23;20021;-79
2024/02/05 08:44:01;;;;;;;2.25;0.30;;;12.50;99.90;;;;;;6190713;23;20027;-79
2024/02/05 08:46:31;;;;;;;1.73;0.50;;;12.30;99.90;;;;;;6202476;23;20044;-78
2024/02/05 08:49:14;;;;;;;1.02;0.73;;;12.50;99.90;;;;;;6170225;23;20016;-80
2024/02/05 08:51:57;;;;;;;1.77;0.40;;;12.40;99.90;;;;;;6203705;23;20047;-77
2024/02/05 08:54:49;;;;;;;4.85;0.20;;;12.40;99.90;;;;;;6201424;23;20020;-80
2024/02/05 08:57:26;;;;;;;2.90;0.20;;;12.50;99.90;;;;;;6199590;23;20029;-83
2024/02/05 09:00:00;;;;;;;1.85;0.25;;;12.50;99.90;;;;;;6196554;23;20079;-76
2024/02/05 09:02:56;;;;;;;1.38;0.30;;;12.50;99.90;;;;;;6220836;23;20503;-78
2024/02/05 09:06:01;;;;;;;0.45;0.10;;;12.50;99.90;;;;;;6197060;23;20017;-77
2024/02/05 09:08:39;;;;;;;2.05;0.10;;;12.50;99.90;;;;;;6225128;23;20025;-78
2024/02/05 09:11:21;;;;;;;5.53;0.70;;;11.90;99.90;;;;;;6196666;23;20045;-77
2024/02/05 09:14:08;;;;;;;0.93;0.13;;;12.50;99.90;;;;;;6203046;23;20016;-77
2024/02/05 09:16:56;;;;;;;1.58;0.20;;;12.50;99.90;;;;;;6102129;23;20024;-85
2024/02/05 09:19:53;;;;;;;2.13;0.20;;;12.40;99.90;;;;;;6075363;23;20125;-81
2024/02/05 09:22:47;;;;;;;1.35;0.10;;;12.40;99.90;;;;;;6082861;23;20121;-82
2024/02/05 09:25:43;;;;;;;0.40;0.30;;;12.40;99.90;;;;;;6022479;23;20031;-78
2024/02/05 09:28:21;;;;;;;1.63;0.20;;;12.50;99.90;;;;;;6022278;23;20027;-81
2024/02/05 09:30:54;;;;;;;3.42;0.22;;;12.50;99.90;;;;;;6000402;23;20007;-84
2024/02/05 09:33:44;;;;;;;3.33;0.30;;;12.60;99.90;;;;;;6048927;23;20062;-77
2024/02/05 09:36:20;;;;;;;2.17;0.30;;;12.60;99.90;;;;;;6025430;23;20118;-78
2024/02/05 09:39:21;;;;;;;2.83;0.40;;;12.70;99.90;;;;;;6073977;23;20086;-81
2024/02/05 09:42:12;;;;;;;2.55;0.70;;;12.70;99.90;;;;;;6054281;23;20023;-79
2024/02/05 09:44:57;;;;;;;2.08;0.10;;;12.00;99.90;;;;;;6038688;23;20030;-79
2024/02/05 09:47:33;;;;;;;3.28;0.20;;;12.90;99.90;;;;;;6050268;23;20511;-81
2024/02/05 09:50:22;;;;;;;1.90;0.10;;;12.90;99.90;;;;;;6102716;23;20030;-76
2024/02/05 09:53:47;;;;;;;2.33;0.15;;;13.00;99.90;;;;;;6137270;23;20531;-78
2024/02/05 09:56:25;;;;;;;2.85;0.20;;;12.90;99.90;;;;;;6141035;23;20085;-77
2024/02/05 10:02:06;;;;;;;2.95;0.20;;;13.00;99.90;;;;;;6140897;23;20018;-77
2024/02/05 10:04:57;;;;;;;3.50;0.20;;;13.10;99.90;;;;;;6091640;23;20021;-80
2024/02/05 10:07:48;;;;;;;0.80;0.20;;;13.20;99.90;;;;;;6121521;23;20025;-77
2024/02/05 10:10:30;;;;;;;2.83;0.45;;;13.30;99.90;;;;;;6066910;23;20018;-79
2024/02/05 10:13:34;;;;;;;0.73;0.10;;;13.30;99.90;;;;;;6142844;23;20026;-78
2024/02/05 10:16:17;;;;;;;0.93;0.30;;;13.40;99.90;;;;;;6141219;23;20034;-79
2024/02/05 10:18:50;;;;;;;1.90;0.10;;;13.50;98.70;;;;;;6124120;23;20049;-78
2024/02/05 10:21:20;;;;;;;0.90;0.10;;;13.60;98.40;;;;;;6143415;23;20347;-78
2024/02/05 10:23:53;;;;;;;0.88;0.05;;;13.70;98.30;;;;;;6189579;23;20024;-80
2024/02/05 10:26:25;;;;;;;2.08;0.10;;;13.70;97.50;;;;;;6202140;23;20031;-77
2024/02/05 10:29:22;;;;;;;4.40;0.52;;;13.90;97.60;;;;;;6145399;23;20459;-79
2024/02/05 10:31:58;;;;;;;1.20;0.10;;;13.80;97.10;;;;;;6167627;23;20021;-80
2024/02/05 10:35:20;;;;;;;1.50;0.20;;;13.70;97.20;;;;;;6086492;23;20022;-78
2024/02/05 10:37:56;;;;;;;2.72;0.10;;;13.80;97.50;;;;;;6077613;23;20111;-80
2024/02/05 10:40:43;;;;;;;0.60;0.00;;;13.90;97.20;;;;;;6060592;23;20087;-83
2024/02/05 10:43:13;;;;;;;4.35;0.50;;;14.10;96.90;;;;;;6097262;23;20030;-80
2024/02/05 10:46:04;;;;;;;4.28;0.50;;;14.10;96.50;;;;;;6103139;23;20483;-77
2024/02/05 10:48:35;;;;;;;2.75;0.20;;;14.10;96.10;;;;;;6116856;23;20077;-78
2024/02/05 10:51:06;;;;;;;2.65;0.52;;;14.20;96.20;;;;;;6139696;23;20074;-79
2024/02/05 10:53:45;;;;;;;4.25;0.63;;;14.10;95.70;;;;;;6204074;23;20051;-79
2024/02/05 10:56:18;;;;;;;1.85;0.30;;;14.20;95.80;;;;;;6208794;23;20027;-78
2024/02/05 10:58:48;;;;;;;2.83;0.60;;;14.20;95.80;;;;;;6176882;23;20095;-78
2024/02/05 11:01:59;;;;;;;2.13;0.38;;;14.20;95.60;;;;;;6201000;23;20013;-79
2024/02/05 11:04:38;;;;;;;4.78;1.50;;;14.00;95.80;;;;;;6160347;23;20071;-79
2024/02/05 11:07:14;;;;;;;1.98;0.10;;;14.20;95.80;;;;;;6106565;23;20025;-90
2024/02/05 11:09:45;;;;;;;1.52;0.20;;;14.40;95.90;;;;;;6101160;23;20108;-88
2024/02/05 11:12:20;;;;;;;4.78;1.25;;;14.20;95.30;;;;;;6128666;23;20100;-79
2024/02/05 11:14:59;;;;;;;11.10;2.42;;;14.20;95.60;;;;;;6130419;23;20487;-80
2024/02/05 11:17:30;;;;;;;17.88;3.53;;;14.30;95.40;;;;;;6129505;23;20018;-88
2024/02/05 11:20:11;;;;;;;5.00;1.05;;;14.30;95.50;;;;;;6125355;23;20104;-87
2024/02/05 11:22:45;;;;;;;3.00;0.90;;;14.20;95.30;;;;;;6175310;23;20044;-85
2024/02/05 11:25:18;;;;;;;13.80;3.50;;;14.10;95.30;;;;;;6166791;23;20419;-88
2024/02/05 11:27:49;;;;;;;1.40;0.10;;;14.00;95.60;;;;;;6188142;23;20107;-84
2024/02/05 11:30:20;;;;;;;3.22;1.25;;;14.00;95.50;;;;;;6213385;23;20051;-84
2024/02/05 11:32:50;;;;;;;2.42;0.30;;;13.90;95.20;;;;;;6199426;23;20017;-82
2024/02/05 11:35:28;;;;;;;1.55;0.40;;;13.80;95.40;;;;;;6192515;23;20031;-85
2024/02/05 11:38:07;;;;;;;2.00;0.70;;;13.70;95.60;;;;;;6140473;23;20082;-85
2024/02/05 11:40:52;;;;;;;0.90;0.10;;;13.70;95.80;;;;;;6191192;23;20036;-83
2024/02/05 11:43:28;;;;;;;1.15;0.10;;;13.70;95.70;;;;;;6202013;23;20406;-85
2024/02/05 11:46:03;;;;;;;1.58;0.20;;;13.60;95.60;;;;;;6194525;23;20397;-85
2024/02/05 11:48:36;;;;;;;0.10;0.00;;;13.60;95.50;;;;;;6217489;23;20016;-85
2024/02/05 11:51:12;;;;;;;1.40;0.00;;;13.60;95.80;;;;;;6191324;23;20107;-84
2024/02/05 11:53:50;;;;;;;0.20;0.10;;;13.60;95.40;;;;;;6193111;23;20020;-87
2024/02/05 11:56:19;;;;;;;0.60;0.00;;;13.60;95.70;;;;;;6186662;23;20043;-87
2024/02/05 11:58:51;;;;;;;0.60;0.00;;;13.60;95.70;;;;;;6187674;23;20369;-85
2024/02/05 12:01:20;;;;;;;1.10;0.00;;;13.70;95.60;;;;;;6213426;23;20020;-79
2024/02/05 12:03:55;;;;;;;1.88;0.40;;;13.70;95.40;;;;;;6205940;23;20009;-81
2024/02/05 12:06:51;;;;;;;1.05;0.00;;;13.90;95.20;;;;;;6207431;23;20016;-81
2024/02/05 12:09:21;;;;;;;2.40;0.10;;;13.90;94.90;;;;;;6133731;23;20026;-87
2024/02/05 12:11:54;;;;;;;1.58;0.30;;;13.80;94.90;;;;;;6126961;23;20017;-88
2024/02/05 12:14:31;;;;;;;0.43;0.00;;;13.80;95.10;;;;;;6123698;23;20112;-80
2024/02/05 12:20:29;;;;;;;4.40;0.93;;;13.80;94.70;;;;;;6136150;23;20048;-78
2024/02/05 12:23:04;;;;;;;3.30;1.02;;;13.80;94.90;;;;;;6096452;23;20512;-79
2024/02/05 12:25:37;;;;;;;0.30;0.10;;;13.80;94.80;;;;;;6072432;23;20124;-83
2024/02/05 12:28:17;;;;;;;1.33;0.45;;;13.70;94.90;;;;;;6070652;23;20545;-78
2024/02/05 12:31:19;;;;;;;9.02;7.68;;;13.70;94.70;;;;;;6034075;23;20026;-76
2024/02/05 12:34:11;;;;;;;3.60;1.05;;;13.70;94.90;;;;;;6037147;23;20042;-89
2024/02/05 12:36:50;;;;;;;17.67;8.70;;;13.60;95.20;;;;;;6011438;23;20023;-87
2024/02/05 12:39:23;;;;;;;9.35;5.85;;;13.60;95.50;;;;;;6012461;23;20031;-85
2024/02/05 12:42:28;;;;;;;4.20;2.28;;;13.60;95.20;;;;;;6040633;23;20369;-85
2024/02/05 12:45:28;;;;;;;2.33;1.02;;;13.50;95.50;;;;;;6020572;23;20479;-79
2024/02/05 12:48:12;;;;;;;2.30;0.50;;;13.50;95.30;;;;;;6048159;23;20371;-78
2024/02/05 12:51:09;;;;;;;0.82;0.17;;;13.60;95.20;;;;;;6013983;23;20024;-81
2024/02/05 12:57:53;;;;;;;5.70;2.08;;;13.70;95.20;;;;;;6019678;23;20019;-79
2024/02/05 13:00:51;;;;;;;3.97;0.77;;;13.70;95.00;;;;;;5995739;23;20089;-80
2024/02/05 13:06:42;;;;;;;6.85;1.70;;;13.70;94.70;;;;;;5997490;24;20028;-82
2024/02/05 13:12:46;;;;;;;2.15;0.43;;;13.60;95.40;;;;;;5999817;23;20018;-81
2024/02/05 13:16:17;;;;;;;1.60;0.40;;;13.60;95.20;;;;;;6073639;23;20030;-80
2024/02/05 13:19:22;;;;;;;2.28;0.52;;;13.70;95.40;;;;;;5920974;24;20024;-86
2024/02/05 13:21:53;;;;;;;3.03;0.77;;;13.70;95.20;;;;;;5960046;23;20027;-80
2024/02/05 13:24:23;;;;;;;1.92;0.80;;;13.80;95.00;;;;;;6034713;23;20040;-85
2024/02/05 13:26:55;;;;;;;1.67;0.20;;;13.90;94.70;;;;;;6034997;23;20058;-77
2024/02/05 13:29:32;;;;;;;2.70;0.60;;;13.90;94.50;;;;;;6058522;23;20028;-79
2024/02/05 13:32:15;;;;;;;2.95;0.60;;;14.00;94.20;;;;;;6059279;23;20310;-81
2024/02/05 13:34:55;;;;;;;4.28;0.28;;;14.10;94.20;;;;;;6044458;23;20023;-78
2024/02/05 13:37:38;;;;;;;5.75;0.40;;;14.00;94.00;;;;;;6074581;23;20415;-83
2024/02/05 13:40:12;;;;;;;2.42;0.55;;;14.10;94.10;;;;;;6055697;23;20026;-78
2024/02/05 13:42:53;;;;;;;2.00;0.30;;;14.20;93.50;;;;;;6128672;23;20450;-76
2024/02/05 13:48:58;;;;;;;6.97;1.55;;;14.10;93.60;;;;;;6187774;23;20048;-85
2024/02/05 13:51:35;;;;;;;2.10;0.30;;;14.20;93.80;;;;;;6195727;23;20076;-77
2024/02/05 13:57:10;;;;;;;1.40;0.30;;;14.20;93.00;;;;;;6194937;23;20016;-80